createdAt,value
2022-10-31T00:01:01.304Z,6.00
2022-10-31T00:03:28.646Z,6.37
2022-10-31T00:05:55.478Z,6.13
2022-10-31T00:08:22.766Z,6.57
2022-10-31T00:10:49.657Z,7.40
2022-10-31T00:13:16.726Z,6.57
2022-10-31T00:15:45.562Z,6.07
2022-10-31T00:18:12.468Z,6.17
2022-10-31T00:20:40.199Z,5.50
2022-10-31T00:23:07.571Z,6.30
2022-10-31T00:25:36.818Z,6.87
2022-10-31T00:28:04.134Z,6.63
2022-10-31T00:30:31.709Z,6.13
2022-10-31T00:33:00.210Z,5.73
2022-10-31T00:35:27.506Z,6.13
2022-10-31T00:37:54.321Z,6.07
2022-10-31T00:40:21.463Z,6.07
2022-10-31T00:42:48.290Z,6.00
2022-10-31T00:45:15.596Z,6.10
2022-10-31T00:47:42.419Z,6.20
2022-10-31T00:50:10.775Z,6.00
2022-10-31T00:52:37.591Z,5.57
2022-10-31T00:55:05.094Z,5.63
2022-10-31T00:57:31.942Z,6.13
2022-10-31T00:59:59.083Z,5.90
2022-10-31T01:02:26.296Z,6.23
2022-10-31T01:04:53.686Z,6.60
2022-10-31T01:07:21.919Z,5.90
2022-10-31T01:09:49.244Z,6.40
2022-10-31T01:12:16.159Z,6.30
2022-10-31T01:14:46.089Z,6.30
2022-10-31T01:17:13.082Z,6.17
2022-10-31T01:19:40.671Z,5.90
2022-10-31T01:22:07.503Z,5.90
2022-10-31T01:24:36.045Z,6.67
2022-10-31T01:27:03.123Z,6.37
2022-10-31T01:29:30.303Z,6.00
2022-10-31T01:31:57.140Z,6.73
2022-10-31T01:34:24.300Z,6.37
2022-10-31T01:36:52.211Z,7.17
2022-10-31T01:39:23.339Z,6.40
2022-10-31T01:41:53.528Z,6.47
2022-10-31T01:44:54.125Z,6.20
2022-10-31T01:47:28.724Z,6.20
2022-10-31T01:49:58.592Z,6.33
2022-10-31T01:52:28.683Z,6.17
2022-10-31T01:55:00.105Z,6.53
2022-10-31T01:57:30.093Z,6.73
2022-10-31T02:00:01.709Z,6.80
2022-10-31T02:02:31.185Z,6.10
2022-10-31T02:05:00.343Z,7.10
2022-10-31T02:07:32.706Z,6.53
2022-10-31T02:10:01.262Z,6.43
2022-10-31T02:12:31.159Z,7.00
2022-10-31T02:14:59.086Z,6.47
2022-10-31T02:17:26.176Z,6.43
2022-10-31T02:19:57.769Z,6.67
2022-10-31T02:22:29.009Z,6.70
2022-10-31T02:25:24.735Z,6.37
2022-10-31T02:28:12.309Z,6.43
2022-10-31T02:30:47.239Z,6.53
2022-10-31T02:33:24.442Z,6.30
2022-10-31T02:35:58.288Z,6.23
2022-10-31T02:38:37.525Z,6.73
2022-10-31T02:41:11.137Z,6.33
2022-10-31T02:43:44.665Z,6.70
2022-10-31T02:46:18.956Z,6.13
2022-10-31T02:48:49.370Z,6.63
2022-10-31T02:51:17.453Z,6.77
2022-10-31T02:53:44.755Z,6.87
2022-10-31T02:56:14.107Z,7.30
2022-10-31T02:58:45.040Z,6.90
2022-10-31T03:01:27.767Z,7.57
2022-10-31T03:04:24.531Z,7.30
2022-10-31T03:06:59.713Z,7.57
2022-10-31T03:09:33.784Z,7.90
2022-10-31T03:12:09.434Z,8.70
2022-10-31T03:14:42.278Z,9.70
2022-10-31T03:17:15.450Z,9.43
2022-10-31T03:19:47.190Z,9.67
2022-10-31T03:22:20.309Z,10.27
2022-10-31T03:24:52.207Z,10.17
2022-10-31T03:27:23.032Z,11.27
2022-10-31T03:29:51.907Z,12.00
2022-10-31T03:32:23.385Z,13.00
2022-10-31T03:34:54.318Z,12.03
2022-10-31T03:37:26.411Z,13.40
2022-10-31T03:39:56.311Z,14.30
2022-10-31T03:46:30.712Z,14.63
2022-10-31T03:48:59.238Z,13.73
2022-10-31T03:51:32.394Z,13.43
2022-10-31T03:54:05.115Z,12.63
2022-10-31T03:56:35.919Z,13.57
2022-10-31T03:59:07.219Z,13.50
2022-10-31T04:01:40.247Z,13.97
2022-10-31T04:04:08.813Z,14.63
2022-10-31T04:06:36.986Z,14.67
2022-10-31T04:09:07.588Z,14.07
2022-10-31T04:11:41.827Z,15.13
2022-10-31T04:14:10.335Z,14.57
2022-10-31T04:16:37.561Z,15.17
2022-10-31T04:19:05.064Z,16.03
2022-10-31T04:21:32.167Z,15.33
2022-10-31T04:23:59.459Z,16.40
2022-10-31T04:26:27.734Z,16.70
2022-10-31T04:28:54.937Z,15.80
2022-10-31T04:31:21.911Z,16.77
2022-10-31T04:33:49.227Z,16.87
2022-10-31T04:36:16.131Z,17.17
2022-10-31T04:38:43.372Z,17.13
2022-10-31T04:41:10.338Z,16.77
2022-10-31T04:43:39.013Z,17.83
2022-10-31T04:46:06.171Z,18.17
2022-10-31T04:48:33.494Z,17.20
2022-10-31T04:51:01.453Z,17.20
2022-10-31T04:53:28.904Z,17.63
2022-10-31T04:55:55.903Z,17.43
2022-10-31T04:58:23.203Z,17.53
2022-10-31T05:00:54.224Z,18.90
2022-10-31T05:03:21.576Z,18.47
2022-10-31T05:05:48.853Z,18.80
2022-10-31T05:08:16.267Z,19.00
2022-10-31T05:10:43.259Z,19.80
2022-10-31T05:13:10.832Z,19.60
2022-10-31T05:15:37.803Z,20.40
2022-10-31T05:18:06.308Z,21.10
2022-10-31T05:20:33.697Z,21.57
2022-10-31T05:23:01.307Z,21.67
2022-10-31T05:25:30.290Z,22.10
2022-10-31T05:27:58.273Z,21.97
2022-10-31T05:30:28.558Z,21.00
2022-10-31T05:32:55.829Z,20.87
2022-10-31T05:35:25.891Z,20.93
2022-10-31T05:37:53.270Z,21.97
2022-10-31T05:40:21.718Z,21.37
2022-10-31T05:42:52.217Z,22.87
2022-10-31T05:45:20.280Z,21.57
2022-10-31T05:47:52.458Z,22.33
2022-10-31T05:50:19.382Z,21.37
2022-10-31T05:52:48.004Z,20.73
2022-10-31T05:55:15.188Z,22.07
2022-10-31T05:57:42.384Z,21.27
2022-10-31T06:00:10.345Z,21.87
2022-10-31T06:02:37.231Z,21.83
2022-10-31T06:05:04.757Z,21.47
2022-10-31T06:07:35.061Z,22.63
2022-10-31T06:10:05.647Z,23.17
2022-10-31T06:12:33.459Z,23.57
2022-10-31T06:15:00.301Z,23.63
2022-10-31T06:17:27.636Z,24.43
2022-10-31T06:19:54.474Z,25.10
2022-10-31T06:22:21.350Z,24.43
2022-10-31T06:24:48.245Z,25.03
2022-10-31T06:27:17.005Z,23.37
2022-10-31T06:29:43.925Z,24.73
2022-10-31T06:32:12.753Z,25.13
2022-10-31T06:34:39.805Z,24.57
2022-10-31T06:37:08.087Z,24.90
2022-10-31T06:39:35.258Z,23.90
2022-10-31T06:42:02.808Z,24.07
2022-10-31T06:44:31.458Z,25.23
2022-10-31T06:46:58.804Z,24.77
2022-10-31T06:49:25.721Z,24.93
2022-10-31T06:51:53.031Z,26.07
2022-10-31T06:54:20.060Z,23.73
2022-10-31T06:56:48.417Z,24.47
2022-10-31T06:59:15.739Z,23.23
2022-10-31T07:01:44.618Z,23.07
2022-10-31T07:04:12.340Z,25.93
2022-10-31T07:06:39.384Z,23.60
2022-10-31T07:09:06.656Z,23.97
2022-10-31T07:11:34.049Z,23.63
2022-10-31T07:14:00.963Z,24.17
2022-10-31T07:16:28.306Z,22.80
2022-10-31T07:18:56.513Z,22.27
2022-10-31T07:21:23.761Z,23.07
2022-10-31T07:23:50.672Z,22.17
2022-10-31T07:26:17.963Z,22.07
2022-10-31T07:28:46.557Z,22.53
2022-10-31T07:31:13.708Z,21.40
2022-10-31T07:33:40.596Z,22.87
2022-10-31T07:36:09.602Z,24.03
2022-10-31T07:38:36.478Z,23.63
2022-10-31T07:41:03.404Z,23.97
2022-10-31T07:43:30.281Z,21.97
2022-10-31T07:45:57.567Z,22.87
2022-10-31T07:48:24.445Z,21.70
2022-10-31T07:50:51.416Z,23.50
2022-10-31T07:53:20.173Z,23.23
2022-10-31T07:55:47.073Z,24.23
2022-10-31T07:58:15.736Z,24.17
2022-10-31T08:00:44.800Z,23.10
2022-10-31T08:03:13.428Z,23.57
2022-10-31T08:05:42.058Z,25.80
2022-10-31T08:08:09.779Z,23.80
2022-10-31T08:10:38.463Z,23.57
2022-10-31T08:13:07.910Z,24.47
2022-10-31T08:15:38.026Z,24.60
2022-10-31T08:18:05.986Z,24.03
2022-10-31T08:20:33.146Z,23.97
2022-10-31T08:23:02.188Z,23.10
2022-10-31T08:25:33.741Z,22.80
2022-10-31T08:28:06.579Z,23.40
2022-10-31T08:30:35.725Z,22.10
2022-10-31T08:33:04.439Z,22.60
2022-10-31T08:35:32.012Z,22.87
2022-10-31T08:38:00.289Z,23.97
2022-10-31T08:40:29.101Z,22.67
2022-10-31T08:43:00.715Z,23.37
2022-10-31T08:45:29.868Z,24.27
2022-10-31T08:48:01.751Z,23.67
2022-10-31T08:50:30.671Z,23.60
2022-10-31T08:53:06.126Z,25.50
2022-10-31T08:55:34.763Z,25.07
2022-10-31T08:58:02.367Z,26.47
2022-10-31T09:00:30.697Z,26.70
2022-10-31T09:02:58.113Z,28.97
2022-10-31T09:05:25.741Z,30.60
2022-10-31T09:07:55.843Z,30.83
2022-10-31T09:10:22.790Z,30.47
2022-10-31T09:12:55.905Z,31.20
2022-10-31T09:15:22.821Z,31.00
2022-10-31T09:17:51.729Z,31.40
2022-10-31T09:20:19.080Z,32.00
2022-10-31T09:22:46.342Z,37.23
2022-10-31T09:25:13.958Z,32.57
2022-10-31T09:27:41.130Z,33.57
2022-10-31T09:30:09.223Z,33.17
2022-10-31T09:32:36.384Z,32.63
2022-10-31T09:35:05.214Z,33.33
2022-10-31T09:37:32.425Z,33.90
2022-10-31T09:39:59.310Z,32.97
2022-10-31T09:42:44.649Z,32.23
2022-10-31T09:45:17.214Z,33.17
2022-10-31T09:48:02.608Z,32.43
2022-10-31T09:50:36.903Z,37.60
2022-10-31T09:53:11.975Z,37.23
2022-10-31T09:55:43.459Z,34.93
2022-10-31T09:58:17.675Z,33.00
2022-10-31T10:00:44.975Z,31.20
2022-10-31T10:03:20.805Z,32.20
2022-10-31T10:05:56.029Z,32.30
2022-10-31T10:08:28.056Z,30.33
2022-10-31T10:11:01.276Z,30.70
2022-10-31T10:13:41.361Z,31.23
2022-10-31T10:16:17.517Z,29.10
2022-10-31T10:18:56.095Z,32.47
2022-10-31T10:21:33.684Z,30.23
2022-10-31T10:24:11.450Z,29.13
2022-10-31T10:26:41.532Z,28.70
2022-10-31T10:29:24.189Z,28.33
2022-10-31T10:31:55.001Z,30.00
2022-10-31T10:34:26.965Z,28.65
2022-10-31T10:36:59.298Z,29.88
2022-10-31T10:39:31.847Z,28.60
2022-10-31T10:42:19.419Z,29.33
2022-10-31T10:45:07.433Z,30.20
2022-10-31T10:47:42.397Z,29.92
2022-10-31T10:50:15.711Z,30.23
2022-10-31T10:52:51.278Z,31.38
2022-10-31T10:55:27.227Z,33.25
2022-10-31T10:57:58.347Z,30.60
2022-10-31T11:00:28.642Z,28.40
2022-10-31T11:02:56.714Z,26.42
2022-10-31T11:05:29.210Z,25.65
2022-10-31T11:07:57.599Z,24.17
2022-10-31T11:10:24.996Z,21.77
2022-10-31T11:13:22.460Z,22.88
2022-10-31T11:15:58.379Z,21.63
2022-10-31T11:18:27.699Z,18.98
2022-10-31T11:20:56.527Z,16.25
2022-10-31T11:23:27.321Z,16.25
2022-10-31T11:25:57.067Z,15.13
2022-10-31T11:28:24.380Z,15.35
2022-10-31T11:30:55.658Z,15.00
2022-10-31T11:33:27.874Z,15.30
2022-10-31T11:35:58.098Z,14.40
2022-10-31T11:38:35.005Z,14.40
2022-10-31T11:41:11.037Z,15.60
2022-10-31T11:43:38.421Z,16.23
2022-10-31T11:46:11.017Z,15.95
2022-10-31T11:48:38.260Z,15.68
2022-10-31T11:51:06.083Z,16.48
2022-10-31T11:53:35.628Z,16.88
2022-10-31T11:56:06.116Z,15.52
2022-10-31T11:58:33.216Z,14.65
2022-10-31T12:01:00.149Z,15.90
2022-10-31T12:03:50.208Z,15.85
2022-10-31T12:06:21.890Z,16.15
2022-10-31T12:08:50.571Z,15.98
2022-10-31T12:11:39.064Z,15.65
2022-10-31T12:14:26.595Z,15.30
2022-10-31T12:16:59.349Z,15.70
2022-10-31T12:19:37.095Z,15.65
2022-10-31T12:22:11.943Z,15.90
2022-10-31T12:25:05.039Z,14.65
2022-10-31T12:27:42.250Z,15.38
2022-10-31T12:30:20.079Z,16.05
2022-10-31T12:33:12.541Z,14.57
2022-10-31T12:35:51.041Z,14.60
2022-10-31T12:38:43.795Z,15.52
2022-10-31T12:41:30.886Z,14.82
2022-10-31T12:44:07.120Z,16.27
2022-10-31T12:46:57.753Z,13.88
2022-10-31T12:49:43.297Z,14.38
2022-10-31T12:52:32.580Z,13.82
2022-10-31T12:55:12.204Z,13.70
2022-10-31T12:57:45.938Z,12.48
2022-10-31T13:00:16.909Z,12.70
2022-10-31T13:02:50.298Z,11.32
2022-10-31T13:05:23.074Z,14.77
2022-10-31T13:07:55.728Z,9.70
2022-10-31T13:10:26.631Z,7.30
2022-10-31T13:13:02.296Z,6.05
2022-10-31T13:15:33.906Z,4.43
2022-10-31T13:18:04.380Z,3.63
2022-10-31T13:20:34.555Z,3.85
2022-10-31T13:23:48.544Z,4.00
2022-10-31T13:26:11.061Z,4.30
2022-10-31T13:28:45.881Z,4.57
2022-10-31T13:31:13.412Z,5.07
2022-10-31T13:33:45.237Z,5.20
2022-10-31T13:36:25.046Z,5.57
2022-10-31T13:38:55.908Z,5.63
2022-10-31T13:41:46.783Z,5.45
2022-10-31T13:44:19.969Z,10.75
2022-10-31T13:46:47.511Z,7.70
2022-10-31T13:49:41.820Z,7.78
2022-10-31T13:52:17.279Z,6.28
2022-10-31T13:54:46.084Z,6.70
2022-10-31T13:57:23.300Z,6.78
2022-10-31T13:59:54.737Z,6.93
2022-10-31T14:02:28.100Z,7.72
2022-10-31T14:04:59.849Z,8.18
2022-10-31T14:07:29.003Z,8.07
2022-10-31T14:09:59.869Z,8.30
2022-10-31T14:12:31.355Z,8.40
2022-10-31T14:15:04.255Z,8.27
2022-10-31T14:17:39.697Z,8.38
2022-10-31T14:20:26.816Z,8.63
2022-10-31T14:22:53.851Z,8.57
2022-10-31T14:25:32.415Z,7.95
2022-10-31T14:28:01.435Z,9.10
2022-10-31T14:30:31.467Z,11.02
2022-10-31T14:33:01.980Z,10.57
2022-10-31T14:35:47.722Z,10.65
2022-10-31T14:38:29.927Z,8.68
2022-10-31T14:41:33.178Z,9.88
2022-10-31T14:44:25.035Z,10.50
2022-10-31T14:47:03.173Z,10.55
2022-10-31T14:49:43.318Z,10.65
2022-10-31T14:52:14.396Z,10.55
2022-10-31T14:54:44.948Z,11.48
2022-10-31T14:57:19.561Z,10.95
2022-10-31T14:59:50.603Z,10.32
2022-10-31T15:02:25.947Z,10.30
2022-10-31T15:04:55.000Z,9.10
2022-10-31T15:07:25.055Z,9.30
2022-10-31T15:09:59.608Z,9.20
2022-10-31T15:12:29.522Z,7.97
2022-10-31T15:14:57.203Z,8.57
2022-10-31T15:17:27.284Z,7.90
2022-10-31T15:19:54.580Z,8.13
2022-10-31T15:22:25.182Z,8.13
2022-10-31T15:24:57.132Z,8.48
2022-10-31T15:27:25.771Z,8.02
2022-10-31T15:29:55.827Z,9.40
2022-10-31T15:32:26.769Z,11.38
2022-10-31T15:34:55.215Z,11.43
2022-10-31T15:37:25.789Z,11.27
2022-10-31T15:39:53.615Z,12.98
2022-10-31T15:42:24.788Z,12.80
2022-10-31T15:44:58.785Z,13.48
2022-10-31T15:47:28.190Z,13.10
2022-10-31T15:49:56.759Z,13.55
2022-10-31T15:52:31.891Z,14.10
2022-10-31T15:55:01.709Z,14.02
2022-10-31T15:57:28.798Z,21.08
2022-10-31T15:59:56.412Z,20.52
2022-10-31T16:02:25.685Z,20.08
2022-10-31T16:04:57.377Z,17.17
2022-10-31T16:07:25.359Z,17.75
2022-10-31T16:09:55.707Z,17.33
2022-10-31T16:12:24.599Z,17.77
2022-10-31T16:14:53.428Z,17.45
2022-10-31T16:17:22.820Z,18.02
2022-10-31T16:19:56.057Z,19.75
2022-10-31T16:22:27.738Z,19.38
2022-10-31T16:25:00.091Z,20.27
2022-10-31T16:27:30.032Z,20.37
2022-10-31T16:29:58.297Z,19.77
2022-10-31T16:32:30.915Z,19.00
2022-10-31T16:35:18.909Z,20.47
2022-10-31T16:37:46.221Z,19.80
2022-10-31T16:40:14.255Z,20.45
2022-10-31T16:42:42.008Z,21.57
2022-10-31T16:45:15.662Z,21.97
2022-10-31T16:47:42.993Z,20.93
2022-10-31T16:50:16.846Z,20.77
2022-10-31T16:53:08.218Z,21.73
2022-10-31T16:55:35.843Z,21.00
2022-10-31T16:58:03.828Z,21.10
2022-10-31T17:00:31.783Z,24.03
2022-10-31T17:02:59.118Z,25.10
2022-10-31T17:05:30.669Z,25.90
2022-10-31T17:07:58.126Z,29.73
2022-10-31T17:10:26.146Z,32.07
2022-10-31T17:12:53.665Z,32.70
2022-10-31T17:15:22.623Z,35.53
2022-10-31T17:17:49.570Z,37.30
2022-10-31T17:20:20.438Z,37.13
2022-10-31T17:22:48.720Z,37.23
2022-10-31T17:25:18.233Z,39.00
2022-10-31T17:27:47.410Z,40.77
2022-10-31T17:30:15.238Z,44.10
2022-10-31T17:32:43.184Z,44.23
2022-10-31T17:35:11.116Z,44.63
2022-10-31T17:37:38.229Z,46.67
2022-10-31T17:40:07.861Z,43.53
2022-10-31T17:42:34.774Z,45.07
2022-10-31T17:45:01.787Z,47.63
2022-10-31T17:47:29.008Z,47.23
2022-10-31T17:49:55.839Z,46.10
2022-10-31T17:52:22.907Z,50.20
2022-10-31T17:54:49.909Z,49.93
2022-10-31T17:57:18.821Z,51.20
2022-10-31T17:59:45.666Z,50.90
2022-10-31T18:02:12.888Z,52.23
2022-10-31T18:04:42.708Z,51.67
2022-10-31T18:07:09.608Z,50.60
2022-10-31T18:09:36.476Z,51.50
2022-10-31T18:12:03.739Z,50.37
2022-10-31T18:14:32.336Z,49.10
2022-10-31T18:16:59.591Z,48.77
2022-10-31T18:19:26.506Z,48.07
2022-10-31T18:21:53.758Z,48.33
2022-10-31T18:24:20.635Z,45.63
2022-10-31T18:26:48.219Z,50.37
2022-10-31T18:29:15.187Z,52.83
2022-10-31T18:31:44.260Z,49.73
2022-10-31T18:34:11.086Z,43.30
2022-10-31T18:36:38.013Z,43.33
2022-10-31T18:39:04.989Z,42.90
2022-10-31T18:41:32.313Z,42.47
2022-10-31T18:44:02.285Z,43.00
2022-10-31T18:46:29.622Z,43.63
2022-10-31T18:48:57.933Z,42.77
2022-10-31T18:51:25.215Z,42.23
2022-10-31T18:53:53.015Z,43.43
2022-10-31T18:56:21.377Z,42.57
2022-10-31T18:58:48.307Z,42.73
2022-10-31T19:01:16.856Z,42.07
2022-10-31T19:03:44.103Z,40.57
2022-10-31T19:06:12.677Z,40.87
2022-10-31T19:08:39.918Z,41.87
2022-10-31T19:11:08.454Z,42.07
2022-10-31T19:13:36.180Z,43.23
2022-10-31T19:16:07.642Z,41.40
2022-10-31T19:18:34.645Z,40.27
2022-10-31T19:21:06.154Z,41.20
2022-10-31T19:23:34.459Z,39.80
2022-10-31T19:26:02.619Z,39.43
2022-10-31T19:28:30.876Z,41.43
2022-10-31T19:30:58.205Z,43.10
2022-10-31T19:33:34.898Z,42.90
2022-10-31T19:36:08.224Z,42.80
2022-10-31T19:38:37.718Z,41.83
2022-10-31T19:41:07.293Z,43.60
2022-10-31T19:43:34.330Z,41.93
2022-10-31T19:46:03.559Z,41.07
2022-10-31T19:48:31.152Z,43.57
2022-10-31T19:51:01.944Z,45.20
2022-10-31T19:53:30.324Z,49.20
2022-10-31T19:55:58.965Z,44.43
2022-10-31T19:58:26.410Z,44.93
2022-10-31T20:00:54.469Z,44.07
2022-10-31T20:03:22.685Z,42.67
2022-10-31T20:05:50.697Z,42.93
2022-10-31T20:08:19.327Z,41.17
2022-10-31T20:10:54.496Z,41.07
2022-10-31T20:13:23.758Z,40.50
2022-10-31T20:15:51.146Z,40.97
2022-10-31T20:18:18.731Z,42.23
2022-10-31T20:20:45.988Z,41.33
2022-10-31T20:23:12.854Z,40.27
2022-10-31T20:25:47.433Z,41.13
2022-10-31T20:28:14.534Z,42.13
2022-10-31T20:30:43.651Z,40.70
2022-10-31T20:33:10.506Z,41.27
2022-10-31T20:35:37.909Z,48.03
2022-10-31T20:38:05.241Z,42.50
2022-10-31T20:40:32.631Z,40.73
2022-10-31T20:43:00.435Z,42.47
2022-10-31T20:45:27.369Z,41.67
2022-10-31T20:47:56.027Z,46.27
2022-10-31T20:50:23.861Z,46.70
2022-10-31T20:52:50.932Z,50.90
2022-10-31T20:55:18.422Z,46.57
2022-10-31T20:57:45.264Z,45.93
2022-10-31T21:00:13.237Z,44.83
2022-10-31T21:02:41.798Z,44.13
2022-10-31T21:05:11.557Z,45.13
2022-10-31T21:07:39.398Z,43.77
2022-10-31T21:10:15.191Z,43.57
2022-10-31T21:12:43.198Z,41.87
2022-10-31T21:15:11.851Z,42.27
2022-10-31T21:17:38.646Z,41.73
2022-10-31T21:20:07.592Z,40.60
2022-10-31T21:22:36.181Z,39.60
2022-10-31T21:25:03.578Z,38.10
2022-10-31T21:27:31.098Z,38.77
2022-10-31T21:29:58.335Z,38.77
2022-10-31T21:32:25.296Z,38.33
2022-10-31T21:34:52.356Z,38.40
2022-10-31T21:37:19.270Z,37.40
2022-10-31T21:39:50.821Z,38.57
2022-10-31T21:42:21.357Z,38.50
2022-10-31T21:44:49.128Z,38.37
2022-10-31T21:47:16.180Z,38.17
2022-10-31T21:49:43.496Z,38.47
2022-10-31T21:52:10.668Z,38.90
2022-10-31T21:54:37.923Z,37.17
2022-10-31T21:57:06.263Z,38.70
2022-10-31T21:59:33.180Z,40.10
2022-10-31T22:02:00.905Z,38.40
2022-10-31T22:04:29.057Z,38.67
2022-10-31T22:06:55.900Z,37.40
2022-10-31T22:09:23.687Z,37.17
2022-10-31T22:11:51.023Z,36.70
2022-10-31T22:14:19.591Z,36.93
2022-10-31T22:16:46.485Z,37.30
2022-10-31T22:19:14.918Z,36.63
2022-10-31T22:21:43.255Z,37.37
2022-10-31T22:24:10.789Z,37.43
2022-10-31T22:26:38.366Z,40.27
2022-10-31T22:29:06.803Z,38.80
2022-10-31T22:31:38.627Z,39.23
2022-10-31T22:34:05.494Z,39.87
2022-10-31T22:36:32.658Z,40.23
2022-10-31T22:39:00.022Z,40.97
2022-10-31T22:41:28.585Z,38.63
2022-10-31T22:43:56.362Z,38.20
2022-10-31T22:46:25.030Z,39.60
2022-10-31T22:48:55.242Z,38.47
2022-10-31T22:51:23.942Z,42.20
2022-10-31T22:53:51.484Z,40.93
2022-10-31T22:56:20.622Z,38.30
2022-10-31T22:58:48.290Z,40.37
2022-10-31T23:01:17.249Z,39.70
2022-10-31T23:03:44.895Z,41.07
2022-10-31T23:06:15.033Z,41.37
2022-10-31T23:08:42.885Z,39.93
2022-10-31T23:11:17.287Z,40.13
2022-10-31T23:14:03.959Z,39.40
2022-10-31T23:16:31.168Z,38.83
2022-10-31T23:18:58.256Z,37.83
2022-10-31T23:21:44.156Z,38.67
2022-10-31T23:24:12.020Z,38.50
2022-10-31T23:26:57.655Z,39.33
2022-10-31T23:29:25.018Z,39.97
2022-10-31T23:31:54.479Z,38.60
2022-10-31T23:34:22.154Z,38.03
2022-10-31T23:36:52.190Z,37.40
2022-10-31T23:39:21.350Z,38.93
2022-10-31T23:41:51.767Z,37.40
2022-10-31T23:44:19.285Z,39.90
2022-10-31T23:46:46.539Z,40.30
2022-10-31T23:49:13.574Z,41.27
2022-10-31T23:51:41.266Z,41.97
2022-10-31T23:54:09.970Z,43.37
2022-10-31T23:56:36.966Z,44.87
2022-10-31T23:59:04.476Z,46.20
